CheckWX is a tool to help pilots better visualize weather data.  It is not intended as a substitute for an official pre-flight weather briefing.

03:32:20 UTC

CZMD METAR
Muskrat Dam Airport
Muskrat Dam, Canada
Current

32 mins ago

CZMD 270300Z AUTO 00000KT 9SM CLR 03/M04 A3018 RMK SLP236
Observed
May-27 @ 03:00 UTC
Visibility
9 SM
Flight Rules
VFR
Cloud Levels
  • Clear skies
Temperature
C / 37°F
Dewpoint
-4°C / 25°F
Humidity
60%
Altimeter
30.18" Hg
Pressure
1022.02 hPa
Previous

2 hours ago

CZMD 270200Z AUTO 30003KT 9SM CLR 08/M07 A3018 RMK SLP235
Observed
May-27 @ 02:00 UTC
Wind
  • 300° at 3 KTS
Visibility
9 SM
Flight Rules
VFR
Cloud Levels
  • Clear skies
Temperature
C / 46°F
Dewpoint
-7°C / 19°F
Humidity
34%
Altimeter
30.18" Hg
Pressure
1022.02 hPa
Previous

3 hours ago

CZMD 270100Z AUTO 28006KT 9SM CLR 10/M07 A3017 RMK SLP233
Observed
May-27 @ 01:00 UTC
Wind
  • 280° at 6 KTS
Visibility
9 SM
Flight Rules
VFR
Cloud Levels
  • Clear skies
Temperature
10°C / 50°F
Dewpoint
-7°C / 19°F
Humidity
30%
Altimeter
30.17" Hg
Pressure
1021.72 hPa